Decoded Metar for ZSAM (XIAMEN in CHINA) (IATA:XMN) | Meteo·Mobile Aviation Weather
aviador You're here:

ZSAM Decoded Metar

XIAMEN in CHINA
Report Time2018-10-23 11:00:00
UTC Time2018-10-23 11:53:26
Flight Rules vfr VFR
Wind100° at 8 kt
W.Decomp.*RWY 05: 4.9 kt HW 6.3 kt RCW
W.Rank100° ranks 8
Current wind is above 100° avg. (7.9)
Visibility9999 m
Phenomena:N/A
Clouds:Overcast 030 Hf
Expected CloudBase > 1,600 ft AGL from Temp-Dew spread
Ceiling3,000 ft
Temp24°C (ISA +10)
Dew Point20°C (78% RH)
QNH1017 hPa
Density Alt1,781 ft
Elevation456 ft
Report Wrong Elevation
Raw Report
METAR ZSAM 231100Z 10004MPS 070V130 9999 OVC030 24/20 Q1017 NOSIG=

Extra information for ZSAM:More info

Metar Taf Metar & Taf Last 4 Metars F.Rules Stats Wind Profile Meteogram Temp Stats Airport Information Weather charts Add Link Nearby VenuesMetar ALERT Operation Metar Decoded Social comments